sensor_id;sensor_type;location;lat;lon;timestamp;P1;durP1;ratioP1;P2;durP2;ratioP2
34836;SDS011;21053;50.848;4.652;2023-05-07T00:02:16;14.13;;;3.75;;
34836;SDS011;21053;50.848;4.652;2023-05-07T00:07:13;9.95;;;3.75;;
34836;SDS011;21053;50.848;4.652;2023-05-07T00:09:41;11.00;;;3.58;;
34836;SDS011;21053;50.848;4.652;2023-05-07T00:12:09;8.32;;;3.42;;
34836;SDS011;21053;50.848;4.652;2023-05-07T00:14:36;7.20;;;3.42;;
34836;SDS011;21053;50.848;4.652;2023-05-07T00:17:02;9.75;;;3.42;;
34836;SDS011;21053;50.848;4.652;2023-05-07T00:19:27;9.80;;;3.78;;
34836;SDS011;21053;50.848;4.652;2023-05-07T00:21:54;7.03;;;3.40;;
34836;SDS011;21053;50.848;4.652;2023-05-07T00:24:22;7.40;;;3.65;;
34836;SDS011;21053;50.848;4.652;2023-05-07T00:26:50;6.63;;;3.20;;
34836;SDS011;21053;50.848;4.652;2023-05-07T00:29:18;5.03;;;3.22;;
34836;SDS011;21053;50.848;4.652;2023-05-07T00:31:45;5.90;;;3.70;;
34836;SDS011;21053;50.848;4.652;2023-05-07T00:34:13;8.80;;;3.75;;
34836;SDS011;21053;50.848;4.652;2023-05-07T00:36:39;8.95;;;3.38;;
34836;SDS011;21053;50.848;4.652;2023-05-07T00:39:07;6.07;;;3.55;;
34836;SDS011;21053;50.848;4.652;2023-05-07T00:41:36;7.90;;;3.97;;
34836;SDS011;21053;50.848;4.652;2023-05-07T00:44:02;9.90;;;4.22;;
34836;SDS011;21053;50.848;4.652;2023-05-07T00:46:29;10.07;;;3.75;;
34836;SDS011;21053;50.848;4.652;2023-05-07T00:48:57;9.85;;;3.38;;
34836;SDS011;21053;50.848;4.652;2023-05-07T00:51:30;6.35;;;3.50;;
34836;SDS011;21053;50.848;4.652;2023-05-07T00:54:00;9.20;;;4.07;;
34836;SDS011;21053;50.848;4.652;2023-05-07T00:56:28;11.18;;;3.58;;
34836;SDS011;21053;50.848;4.652;2023-05-07T00:58:55;10.30;;;3.38;;
34836;SDS011;21053;50.848;4.652;2023-05-07T01:01:22;11.20;;;3.92;;
34836;SDS011;21053;50.848;4.652;2023-05-07T01:03:48;10.15;;;4.28;;
34836;SDS011;21053;50.848;4.652;2023-05-07T01:06:14;7.63;;;3.33;;
34836;SDS011;21053;50.848;4.652;2023-05-07T01:08:44;9.30;;;3.75;;
34836;SDS011;21053;50.848;4.652;2023-05-07T01:11:10;7.68;;;3.72;;
34836;SDS011;21053;50.848;4.652;2023-05-07T01:13:40;10.95;;;3.83;;
34836;SDS011;21053;50.848;4.652;2023-05-07T01:16:08;8.02;;;3.75;;
34836;SDS011;21053;50.848;4.652;2023-05-07T01:18:34;9.13;;;3.83;;
34836;SDS011;21053;50.848;4.652;2023-05-07T01:21:01;6.10;;;3.50;;
34836;SDS011;21053;50.848;4.652;2023-05-07T01:23:33;7.18;;;3.50;;
34836;SDS011;21053;50.848;4.652;2023-05-07T01:26:01;10.23;;;3.75;;
34836;SDS011;21053;50.848;4.652;2023-05-07T01:28:28;7.65;;;3.33;;
34836;SDS011;21053;50.848;4.652;2023-05-07T01:30:54;12.38;;;3.75;;
34836;SDS011;21053;50.848;4.652;2023-05-07T01:35:54;15.05;;;4.38;;
34836;SDS011;21053;50.848;4.652;2023-05-07T01:38:23;9.63;;;3.45;;
34836;SDS011;21053;50.848;4.652;2023-05-07T01:40:52;10.93;;;3.33;;
34836;SDS011;21053;50.848;4.652;2023-05-07T01:43:18;6.05;;;3.53;;
34836;SDS011;21053;50.848;4.652;2023-05-07T01:45:45;5.30;;;2.92;;
34836;SDS011;21053;50.848;4.652;2023-05-07T01:48:14;6.75;;;3.65;;
34836;SDS011;21053;50.848;4.652;2023-05-07T01:50:43;8.60;;;3.20;;
34836;SDS011;21053;50.848;4.652;2023-05-07T01:53:10;11.25;;;3.58;;
34836;SDS011;21053;50.848;4.652;2023-05-07T01:55:39;10.05;;;3.70;;
34836;SDS011;21053;50.848;4.652;2023-05-07T01:58:06;6.60;;;3.45;;
34836;SDS011;21053;50.848;4.652;2023-05-07T02:00:35;7.80;;;3.42;;
34836;SDS011;21053;50.848;4.652;2023-05-07T02:03:02;18.65;;;4.28;;
34836;SDS011;21053;50.848;4.652;2023-05-07T02:05:27;9.82;;;3.90;;
34836;SDS011;21053;50.848;4.652;2023-05-07T02:07:54;8.55;;;3.60;;
34836;SDS011;21053;50.848;4.652;2023-05-07T02:10:22;11.75;;;3.67;;
34836;SDS011;21053;50.848;4.652;2023-05-07T02:12:51;8.77;;;3.30;;
34836;SDS011;21053;50.848;4.652;2023-05-07T02:15:17;7.18;;;3.63;;
34836;SDS011;21053;50.848;4.652;2023-05-07T02:18:03;10.38;;;4.28;;
34836;SDS011;21053;50.848;4.652;2023-05-07T02:20:31;8.43;;;3.45;;
34836;SDS011;21053;50.848;4.652;2023-05-07T02:22:57;9.20;;;3.85;;
34836;SDS011;21053;50.848;4.652;2023-05-07T02:25:23;8.80;;;3.90;;
34836;SDS011;21053;50.848;4.652;2023-05-07T02:27:49;10.23;;;4.00;;
34836;SDS011;21053;50.848;4.652;2023-05-07T02:30:15;7.18;;;3.70;;
34836;SDS011;21053;50.848;4.652;2023-05-07T02:32:40;8.93;;;3.67;;
34836;SDS011;21053;50.848;4.652;2023-05-07T02:35:06;13.02;;;4.20;;
34836;SDS011;21053;50.848;4.652;2023-05-07T02:37:35;6.78;;;3.90;;
34836;SDS011;21053;50.848;4.652;2023-05-07T02:40:02;7.75;;;4.30;;
34836;SDS011;21053;50.848;4.652;2023-05-07T02:42:30;6.95;;;3.35;;
34836;SDS011;21053;50.848;4.652;2023-05-07T02:47:26;6.97;;;3.67;;
34836;SDS011;21053;50.848;4.652;2023-05-07T02:49:54;7.13;;;3.83;;
34836;SDS011;21053;50.848;4.652;2023-05-07T02:52:21;15.10;;;4.18;;
34836;SDS011;21053;50.848;4.652;2023-05-07T02:54:48;5.80;;;3.60;;
34836;SDS011;21053;50.848;4.652;2023-05-07T02:57:14;9.85;;;3.67;;
34836;SDS011;21053;50.848;4.652;2023-05-07T02:59:40;12.80;;;4.22;;
34836;SDS011;21053;50.848;4.652;2023-05-07T03:02:08;7.38;;;3.63;;
34836;SDS011;21053;50.848;4.652;2023-05-07T03:04:34;6.43;;;3.78;;
34836;SDS011;21053;50.848;4.652;2023-05-07T03:07:06;11.20;;;4.25;;
34836;SDS011;21053;50.848;4.652;2023-05-07T03:09:34;7.95;;;3.90;;
34836;SDS011;21053;50.848;4.652;2023-05-07T03:12:01;7.10;;;3.88;;
34836;SDS011;21053;50.848;4.652;2023-05-07T03:14:27;6.50;;;4.10;;
34836;SDS011;21053;50.848;4.652;2023-05-07T03:16:54;14.50;;;4.20;;
34836;SDS011;21053;50.848;4.652;2023-05-07T03:19:21;8.40;;;4.18;;
34836;SDS011;21053;50.848;4.652;2023-05-07T03:21:46;6.60;;;3.40;;
34836;SDS011;21053;50.848;4.652;2023-05-07T03:24:13;7.82;;;3.83;;
34836;SDS011;21053;50.848;4.652;2023-05-07T03:26:40;7.20;;;3.83;;
34836;SDS011;21053;50.848;4.652;2023-05-07T03:29:09;8.60;;;4.38;;
34836;SDS011;21053;50.848;4.652;2023-05-07T03:31:37;11.98;;;4.72;;
34836;SDS011;21053;50.848;4.652;2023-05-07T03:34:04;14.15;;;4.40;;
34836;SDS011;21053;50.848;4.652;2023-05-07T03:36:30;15.15;;;4.65;;
34836;SDS011;21053;50.848;4.652;2023-05-07T03:38:58;8.45;;;3.67;;
34836;SDS011;21053;50.848;4.652;2023-05-07T03:41:25;9.48;;;4.03;;
34836;SDS011;21053;50.848;4.652;2023-05-07T03:46:20;13.18;;;4.32;;
34836;SDS011;21053;50.848;4.652;2023-05-07T03:48:47;9.35;;;4.25;;
34836;SDS011;21053;50.848;4.652;2023-05-07T03:51:16;8.02;;;4.10;;
34836;SDS011;21053;50.848;4.652;2023-05-07T03:53:43;10.93;;;4.80;;
34836;SDS011;21053;50.848;4.652;2023-05-07T03:56:11;11.25;;;4.93;;
34836;SDS011;21053;50.848;4.652;2023-05-07T04:01:09;9.40;;;4.80;;
34836;SDS011;21053;50.848;4.652;2023-05-07T04:03:35;9.77;;;4.70;;
34836;SDS011;21053;50.848;4.652;2023-05-07T04:06:03;9.10;;;4.07;;
34836;SDS011;21053;50.848;4.652;2023-05-07T04:10:59;12.15;;;4.97;;
34836;SDS011;21053;50.848;4.652;2023-05-07T04:13:27;6.93;;;4.20;;
34836;SDS011;21053;50.848;4.652;2023-05-07T04:15:55;9.55;;;4.13;;
34836;SDS011;21053;50.848;4.652;2023-05-07T04:20:51;6.32;;;4.00;;
34836;SDS011;21053;50.848;4.652;2023-05-07T04:23:18;12.57;;;4.10;;
34836;SDS011;21053;50.848;4.652;2023-05-07T04:25:43;11.55;;;4.10;;
34836;SDS011;21053;50.848;4.652;2023-05-07T04:28:11;9.07;;;4.32;;
34836;SDS011;21053;50.848;4.652;2023-05-07T04:30:38;6.85;;;4.15;;
34836;SDS011;21053;50.848;4.652;2023-05-07T04:33:05;9.07;;;4.20;;
34836;SDS011;21053;50.848;4.652;2023-05-07T04:35:32;11.45;;;4.57;;
34836;SDS011;21053;50.848;4.652;2023-05-07T04:37:59;11.25;;;4.00;;
34836;SDS011;21053;50.848;4.652;2023-05-07T04:40:25;9.70;;;4.22;;
34836;SDS011;21053;50.848;4.652;2023-05-07T04:42:54;8.15;;;4.22;;
34836;SDS011;21053;50.848;4.652;2023-05-07T04:45:23;8.90;;;4.05;;
34836;SDS011;21053;50.848;4.652;2023-05-07T04:47:50;10.93;;;4.07;;
34836;SDS011;21053;50.848;4.652;2023-05-07T04:50:16;7.38;;;4.15;;
34836;SDS011;21053;50.848;4.652;2023-05-07T04:52:44;9.02;;;4.25;;
34836;SDS011;21053;50.848;4.652;2023-05-07T04:55:10;10.77;;;4.80;;
34836;SDS011;21053;50.848;4.652;2023-05-07T04:57:36;16.52;;;5.65;;
34836;SDS011;21053;50.848;4.652;2023-05-07T05:00:04;12.50;;;5.10;;
34836;SDS011;21053;50.848;4.652;2023-05-07T05:02:33;12.57;;;5.38;;
34836;SDS011;21053;50.848;4.652;2023-05-07T05:04:59;14.43;;;5.25;;
34836;SDS011;21053;50.848;4.652;2023-05-07T05:07:30;11.50;;;5.88;;
34836;SDS011;21053;50.848;4.652;2023-05-07T05:09:56;16.63;;;5.10;;
34836;SDS011;21053;50.848;4.652;2023-05-07T05:12:25;12.73;;;5.88;;
34836;SDS011;21053;50.848;4.652;2023-05-07T05:14:52;14.45;;;6.15;;
34836;SDS011;21053;50.848;4.652;2023-05-07T05:17:19;7.85;;;4.80;;
34836;SDS011;21053;50.848;4.652;2023-05-07T05:19:45;12.50;;;5.03;;
34836;SDS011;21053;50.848;4.652;2023-05-07T05:22:11;9.68;;;4.82;;
34836;SDS011;21053;50.848;4.652;2023-05-07T05:24:40;9.50;;;4.70;;
34836;SDS011;21053;50.848;4.652;2023-05-07T05:27:06;16.92;;;5.30;;
34836;SDS011;21053;50.848;4.652;2023-05-07T05:29:34;15.27;;;4.97;;
34836;SDS011;21053;50.848;4.652;2023-05-07T05:32:01;10.70;;;5.05;;
34836;SDS011;21053;50.848;4.652;2023-05-07T05:34:27;9.00;;;4.50;;
34836;SDS011;21053;50.848;4.652;2023-05-07T05:36:54;10.73;;;4.97;;
34836;SDS011;21053;50.848;4.652;2023-05-07T05:39:21;7.45;;;4.53;;
34836;SDS011;21053;50.848;4.652;2023-05-07T05:41:50;7.32;;;4.53;;
34836;SDS011;21053;50.848;4.652;2023-05-07T05:44:17;7.55;;;4.50;;
34836;SDS011;21053;50.848;4.652;2023-05-07T05:46:44;8.73;;;4.88;;
34836;SDS011;21053;50.848;4.652;2023-05-07T05:49:12;10.27;;;4.82;;
34836;SDS011;21053;50.848;4.652;2023-05-07T05:51:38;7.30;;;4.63;;
34836;SDS011;21053;50.848;4.652;2023-05-07T05:54:04;11.18;;;4.85;;
34836;SDS011;21053;50.848;4.652;2023-05-07T05:56:30;7.90;;;4.43;;
34836;SDS011;21053;50.848;4.652;2023-05-07T05:58:57;7.18;;;4.25;;
34836;SDS011;21053;50.848;4.652;2023-05-07T06:01:24;8.65;;;4.53;;
34836;SDS011;21053;50.848;4.652;2023-05-07T06:03:51;9.70;;;5.15;;
34836;SDS011;21053;50.848;4.652;2023-05-07T06:06:20;11.32;;;5.03;;
34836;SDS011;21053;50.848;4.652;2023-05-07T06:08:47;14.25;;;5.05;;
34836;SDS011;21053;50.848;4.652;2023-05-07T06:11:12;10.48;;;5.82;;
34836;SDS011;21053;50.848;4.652;2023-05-07T06:13:40;10.77;;;4.75;;
34836;SDS011;21053;50.848;4.652;2023-05-07T06:16:06;13.30;;;4.95;;
34836;SDS011;21053;50.848;4.652;2023-05-07T06:18:33;11.07;;;4.82;;
34836;SDS011;21053;50.848;4.652;2023-05-07T06:21:01;15.70;;;5.60;;
34836;SDS011;21053;50.848;4.652;2023-05-07T06:23:29;9.45;;;4.97;;
34836;SDS011;21053;50.848;4.652;2023-05-07T06:25:58;9.10;;;5.10;;
34836;SDS011;21053;50.848;4.652;2023-05-07T06:28:23;8.75;;;5.35;;
34836;SDS011;21053;50.848;4.652;2023-05-07T06:30:49;10.73;;;5.18;;
34836;SDS011;21053;50.848;4.652;2023-05-07T06:33:17;7.32;;;4.50;;
34836;SDS011;21053;50.848;4.652;2023-05-07T06:35:45;8.25;;;4.47;;
34836;SDS011;21053;50.848;4.652;2023-05-07T06:38:11;9.48;;;5.05;;
34836;SDS011;21053;50.848;4.652;2023-05-07T06:40:39;11.40;;;5.60;;
34836;SDS011;21053;50.848;4.652;2023-05-07T06:43:07;14.90;;;5.53;;
34836;SDS011;21053;50.848;4.652;2023-05-07T06:45:33;12.73;;;5.80;;
34836;SDS011;21053;50.848;4.652;2023-05-07T06:48:00;13.43;;;5.97;;
34836;SDS011;21053;50.848;4.652;2023-05-07T06:50:28;11.38;;;5.35;;
34836;SDS011;21053;50.848;4.652;2023-05-07T06:52:54;10.93;;;5.93;;
34836;SDS011;21053;50.848;4.652;2023-05-07T06:55:19;14.10;;;5.68;;
34836;SDS011;21053;50.848;4.652;2023-05-07T06:57:46;13.88;;;5.75;;
34836;SDS011;21053;50.848;4.652;2023-05-07T07:00:12;13.52;;;5.57;;
34836;SDS011;21053;50.848;4.652;2023-05-07T07:02:39;12.35;;;5.90;;
34836;SDS011;21053;50.848;4.652;2023-05-07T07:05:05;12.65;;;4.88;;
34836;SDS011;21053;50.848;4.652;2023-05-07T07:07:32;9.60;;;5.00;;
34836;SDS011;21053;50.848;4.652;2023-05-07T07:09:58;12.40;;;4.53;;
34836;SDS011;21053;50.848;4.652;2023-05-07T07:12:24;14.02;;;4.57;;
34836;SDS011;21053;50.848;4.652;2023-05-07T07:14:53;11.35;;;4.68;;
34836;SDS011;21053;50.848;4.652;2023-05-07T07:17:18;14.05;;;4.45;;
34836;SDS011;21053;50.848;4.652;2023-05-07T07:19:45;11.57;;;4.70;;
34836;SDS011;21053;50.848;4.652;2023-05-07T07:22:11;12.15;;;4.07;;
34836;SDS011;21053;50.848;4.652;2023-05-07T07:24:37;11.73;;;4.15;;
34836;SDS011;21053;50.848;4.652;2023-05-07T07:27:02;9.30;;;3.88;;
34836;SDS011;21053;50.848;4.652;2023-05-07T07:29:31;12.73;;;4.07;;
34836;SDS011;21053;50.848;4.652;2023-05-07T07:31:57;8.90;;;3.08;;
34836;SDS011;21053;50.848;4.652;2023-05-07T07:34:23;13.43;;;2.85;;
34836;SDS011;21053;50.848;4.652;2023-05-07T07:36:50;14.75;;;2.95;;
34836;SDS011;21053;50.848;4.652;2023-05-07T07:39:17;8.63;;;2.75;;
34836;SDS011;21053;50.848;4.652;2023-05-07T07:44:12;8.13;;;2.88;;
34836;SDS011;21053;50.848;4.652;2023-05-07T07:46:40;9.43;;;2.63;;
34836;SDS011;21053;50.848;4.652;2023-05-07T07:49:08;10.45;;;2.78;;
34836;SDS011;21053;50.848;4.652;2023-05-07T07:51:37;8.50;;;2.55;;
34836;SDS011;21053;50.848;4.652;2023-05-07T07:54:03;7.72;;;2.55;;
34836;SDS011;21053;50.848;4.652;2023-05-07T07:56:29;9.63;;;2.95;;
34836;SDS011;21053;50.848;4.652;2023-05-07T07:58:58;8.32;;;2.60;;
34836;SDS011;21053;50.848;4.652;2023-05-07T08:01:25;6.25;;;2.83;;
34836;SDS011;21053;50.848;4.652;2023-05-07T08:03:52;10.82;;;2.92;;
34836;SDS011;21053;50.848;4.652;2023-05-07T08:06:21;7.43;;;3.28;;
34836;SDS011;21053;50.848;4.652;2023-05-07T08:08:48;10.50;;;2.92;;
34836;SDS011;21053;50.848;4.652;2023-05-07T08:11:15;5.72;;;2.55;;
34836;SDS011;21053;50.848;4.652;2023-05-07T08:13:45;16.13;;;3.03;;
34836;SDS011;21053;50.848;4.652;2023-05-07T08:16:13;6.93;;;3.08;;
34836;SDS011;21053;50.848;4.652;2023-05-07T08:18:39;10.82;;;2.67;;
34836;SDS011;21053;50.848;4.652;2023-05-07T08:21:06;6.68;;;2.97;;
34836;SDS011;21053;50.848;4.652;2023-05-07T08:23:32;8.63;;;2.78;;
34836;SDS011;21053;50.848;4.652;2023-05-07T08:28:28;7.88;;;2.67;;
34836;SDS011;21053;50.848;4.652;2023-05-07T08:30:53;10.38;;;2.90;;
34836;SDS011;21053;50.848;4.652;2023-05-07T08:33:27;10.95;;;2.70;;
34836;SDS011;21053;50.848;4.652;2023-05-07T08:35:53;14.63;;;2.90;;
34836;SDS011;21053;50.848;4.652;2023-05-07T08:38:19;6.70;;;2.60;;
34836;SDS011;21053;50.848;4.652;2023-05-07T08:40:47;8.73;;;2.97;;
34836;SDS011;21053;50.848;4.652;2023-05-07T08:43:18;7.38;;;2.80;;
34836;SDS011;21053;50.848;4.652;2023-05-07T08:45:49;6.65;;;2.65;;
34836;SDS011;21053;50.848;4.652;2023-05-07T08:48:17;9.00;;;3.00;;
34836;SDS011;21053;50.848;4.652;2023-05-07T08:50:44;7.00;;;3.00;;
34836;SDS011;21053;50.848;4.652;2023-05-07T08:53:11;9.07;;;2.95;;
34836;SDS011;21053;50.848;4.652;2023-05-07T08:55:38;8.05;;;3.03;;
34836;SDS011;21053;50.848;4.652;2023-05-07T08:58:04;5.60;;;2.55;;
34836;SDS011;21053;50.848;4.652;2023-05-07T09:00:31;6.18;;;2.88;;
34836;SDS011;21053;50.848;4.652;2023-05-07T09:02:59;5.65;;;2.55;;
34836;SDS011;21053;50.848;4.652;2023-05-07T09:05:25;7.05;;;2.70;;
34836;SDS011;21053;50.848;4.652;2023-05-07T09:07:52;11.30;;;3.20;;
34836;SDS011;21053;50.848;4.652;2023-05-07T09:10:18;7.18;;;2.92;;
34836;SDS011;21053;50.848;4.652;2023-05-07T09:12:44;5.90;;;2.47;;
34836;SDS011;21053;50.848;4.652;2023-05-07T09:15:13;7.55;;;2.75;;
34836;SDS011;21053;50.848;4.652;2023-05-07T09:17:40;9.15;;;3.35;;
34836;SDS011;21053;50.848;4.652;2023-05-07T09:20:07;12.57;;;3.55;;
34836;SDS011;21053;50.848;4.652;2023-05-07T09:22:34;6.28;;;3.10;;
34836;SDS011;21053;50.848;4.652;2023-05-07T09:25:02;7.93;;;3.30;;
34836;SDS011;21053;50.848;4.652;2023-05-07T09:27:28;10.65;;;2.80;;
34836;SDS011;21053;50.848;4.652;2023-05-07T09:29:53;8.13;;;3.38;;
34836;SDS011;21053;50.848;4.652;2023-05-07T09:32:20;9.68;;;3.20;;
34836;SDS011;21053;50.848;4.652;2023-05-07T09:34:46;10.35;;;2.80;;
34836;SDS011;21053;50.848;4.652;2023-05-07T09:37:13;12.50;;;3.45;;
34836;SDS011;21053;50.848;4.652;2023-05-07T09:39:42;6.55;;;2.83;;
34836;SDS011;21053;50.848;4.652;2023-05-07T09:42:10;9.98;;;3.10;;
34836;SDS011;21053;50.848;4.652;2023-05-07T09:44:38;5.60;;;2.65;;
34836;SDS011;21053;50.848;4.652;2023-05-07T09:47:04;7.18;;;2.97;;
34836;SDS011;21053;50.848;4.652;2023-05-07T09:49:33;7.68;;;3.08;;
34836;SDS011;21053;50.848;4.652;2023-05-07T09:52:04;11.20;;;3.33;;
34836;SDS011;21053;50.848;4.652;2023-05-07T09:54:33;8.23;;;3.13;;
34836;SDS011;21053;50.848;4.652;2023-05-07T09:57:01;7.30;;;3.05;;
34836;SDS011;21053;50.848;4.652;2023-05-07T09:59:29;7.90;;;3.00;;
34836;SDS011;21053;50.848;4.652;2023-05-07T10:01:57;8.45;;;3.08;;
34836;SDS011;21053;50.848;4.652;2023-05-07T10:04:26;8.73;;;2.83;;
34836;SDS011;21053;50.848;4.652;2023-05-07T10:06:52;10.77;;;2.80;;
34836;SDS011;21053;50.848;4.652;2023-05-07T10:09:19;6.82;;;2.70;;
34836;SDS011;21053;50.848;4.652;2023-05-07T10:11:48;6.15;;;2.33;;
34836;SDS011;21053;50.848;4.652;2023-05-07T10:14:15;6.30;;;2.30;;
34836;SDS011;21053;50.848;4.652;2023-05-07T10:16:42;6.13;;;2.67;;
34836;SDS011;21053;50.848;4.652;2023-05-07T10:19:09;9.18;;;2.70;;
34836;SDS011;21053;50.848;4.652;2023-05-07T10:21:36;8.20;;;2.50;;
34836;SDS011;21053;50.848;4.652;2023-05-07T10:24:04;11.05;;;3.17;;
34836;SDS011;21053;50.848;4.652;2023-05-07T10:26:48;10.80;;;2.80;;
34836;SDS011;21053;50.848;4.652;2023-05-07T10:32:19;5.00;;;2.50;;
34836;SDS011;21053;50.848;4.652;2023-05-07T10:35:14;6.78;;;2.17;;
34836;SDS011;21053;50.848;4.652;2023-05-07T10:37:44;6.45;;;2.25;;
34836;SDS011;21053;50.848;4.652;2023-05-07T10:40:12;8.82;;;2.63;;
34836;SDS011;21053;50.848;4.652;2023-05-07T10:42:38;9.35;;;2.95;;
34836;SDS011;21053;50.848;4.652;2023-05-07T10:45:18;7.82;;;2.60;;
34836;SDS011;21053;50.848;4.652;2023-05-07T10:53:48;6.63;;;1.70;;
34836;SDS011;21053;50.848;4.652;2023-05-07T10:56:34;8.63;;;2.00;;
34836;SDS011;21053;50.848;4.652;2023-05-07T11:01:59;3.92;;;1.58;;
34836;SDS011;21053;50.848;4.652;2023-05-07T11:04:29;4.65;;;1.75;;
34836;SDS011;21053;50.848;4.652;2023-05-07T11:15:04;4.45;;;1.90;;
34836;SDS011;21053;50.848;4.652;2023-05-07T11:17:34;5.97;;;1.90;;
34836;SDS011;21053;50.848;4.652;2023-05-07T11:20:17;4.90;;;1.75;;
34836;SDS011;21053;50.848;4.652;2023-05-07T11:22:44;3.65;;;1.70;;
34836;SDS011;21053;50.848;4.652;2023-05-07T11:25:10;5.80;;;2.08;;
34836;SDS011;21053;50.848;4.652;2023-05-07T11:27:41;4.60;;;2.00;;
34836;SDS011;21053;50.848;4.652;2023-05-07T11:30:08;7.38;;;2.08;;
34836;SDS011;21053;50.848;4.652;2023-05-07T11:32:35;5.15;;;1.83;;
34836;SDS011;21053;50.848;4.652;2023-05-07T11:35:01;7.65;;;2.50;;
34836;SDS011;21053;50.848;4.652;2023-05-07T11:37:27;7.28;;;2.17;;
34836;SDS011;21053;50.848;4.652;2023-05-07T11:40:07;5.20;;;2.03;;
34836;SDS011;21053;50.848;4.652;2023-05-07T11:42:37;5.25;;;2.00;;
34836;SDS011;21053;50.848;4.652;2023-05-07T11:45:04;4.38;;;1.70;;
34836;SDS011;21053;50.848;4.652;2023-05-07T11:47:33;4.78;;;1.83;;
34836;SDS011;21053;50.848;4.652;2023-05-07T11:50:06;8.32;;;2.03;;
34836;SDS011;21053;50.848;4.652;2023-05-07T11:52:38;6.13;;;1.95;;
34836;SDS011;21053;50.848;4.652;2023-05-07T11:55:04;6.72;;;1.90;;
34836;SDS011;21053;50.848;4.652;2023-05-07T11:57:32;5.55;;;2.20;;
34836;SDS011;21053;50.848;4.652;2023-05-07T11:59:59;8.23;;;2.00;;
34836;SDS011;21053;50.848;4.652;2023-05-07T12:02:27;6.15;;;2.08;;
34836;SDS011;21053;50.848;4.652;2023-05-07T12:04:55;4.55;;;1.85;;
34836;SDS011;21053;50.848;4.652;2023-05-07T12:09:51;6.07;;;2.00;;
34836;SDS011;21053;50.848;4.652;2023-05-07T12:14:48;3.97;;;1.70;;
34836;SDS011;21053;50.848;4.652;2023-05-07T12:17:14;8.20;;;2.33;;
34836;SDS011;21053;50.848;4.652;2023-05-07T12:22:10;3.33;;;1.63;;
34836;SDS011;21053;50.848;4.652;2023-05-07T12:24:49;5.38;;;1.80;;
34836;SDS011;21053;50.848;4.652;2023-05-07T12:27:22;6.03;;;1.97;;
34836;SDS011;21053;50.848;4.652;2023-05-07T12:32:17;5.43;;;1.73;;
34836;SDS011;21053;50.848;4.652;2023-05-07T12:34:45;4.72;;;1.80;;
34836;SDS011;21053;50.848;4.652;2023-05-07T12:37:14;6.07;;;1.80;;
34836;SDS011;21053;50.848;4.652;2023-05-07T12:42:38;4.60;;;1.80;;
34836;SDS011;21053;50.848;4.652;2023-05-07T12:45:15;2.08;;;1.42;;
34836;SDS011;21053;50.848;4.652;2023-05-07T12:47:44;5.38;;;1.60;;
34836;SDS011;21053;50.848;4.652;2023-05-07T12:50:10;4.00;;;1.63;;
34836;SDS011;21053;50.848;4.652;2023-05-07T12:52:36;7.68;;;1.77;;
34836;SDS011;21053;50.848;4.652;2023-05-07T12:55:06;2.88;;;1.75;;
34836;SDS011;21053;50.848;4.652;2023-05-07T12:57:41;2.70;;;1.40;;
34836;SDS011;21053;50.848;4.652;2023-05-07T13:00:09;5.93;;;1.90;;
34836;SDS011;21053;50.848;4.652;2023-05-07T13:02:40;4.28;;;1.70;;
34836;SDS011;21053;50.848;4.652;2023-05-07T13:05:08;4.07;;;1.85;;
34836;SDS011;21053;50.848;4.652;2023-05-07T13:10:03;3.15;;;1.65;;
34836;SDS011;21053;50.848;4.652;2023-05-07T13:12:29;5.57;;;2.00;;
34836;SDS011;21053;50.848;4.652;2023-05-07T13:14:57;4.40;;;1.50;;
34836;SDS011;21053;50.848;4.652;2023-05-07T13:17:26;2.53;;;1.50;;
34836;SDS011;21053;50.848;4.652;2023-05-07T13:19:52;6.57;;;2.00;;
34836;SDS011;21053;50.848;4.652;2023-05-07T13:22:18;8.30;;;2.00;;
34836;SDS011;21053;50.848;4.652;2023-05-07T13:27:14;4.90;;;1.95;;
34836;SDS011;21053;50.848;4.652;2023-05-07T13:32:09;5.95;;;2.00;;
34836;SDS011;21053;50.848;4.652;2023-05-07T13:37:07;7.00;;;2.10;;
34836;SDS011;21053;50.848;4.652;2023-05-07T13:42:08;3.28;;;1.70;;
34836;SDS011;21053;50.848;4.652;2023-05-07T13:44:34;4.25;;;1.73;;
34836;SDS011;21053;50.848;4.652;2023-05-07T13:47:01;4.05;;;1.73;;
34836;SDS011;21053;50.848;4.652;2023-05-07T13:49:27;4.47;;;1.90;;
34836;SDS011;21053;50.848;4.652;2023-05-07T13:51:54;3.30;;;1.50;;
34836;SDS011;21053;50.848;4.652;2023-05-07T13:54:20;8.43;;;2.08;;
34836;SDS011;21053;50.848;4.652;2023-05-07T13:56:52;3.20;;;1.75;;
34836;SDS011;21053;50.848;4.652;2023-05-07T14:01:47;5.45;;;1.85;;
34836;SDS011;21053;50.848;4.652;2023-05-07T14:04:14;3.95;;;1.58;;
34836;SDS011;21053;50.848;4.652;2023-05-07T14:06:40;3.95;;;1.88;;
34836;SDS011;21053;50.848;4.652;2023-05-07T14:09:06;3.08;;;1.63;;
34836;SDS011;21053;50.848;4.652;2023-05-07T14:11:34;3.65;;;1.90;;
34836;SDS011;21053;50.848;4.652;2023-05-07T14:14:01;4.32;;;1.80;;
34836;SDS011;21053;50.848;4.652;2023-05-07T14:16:28;4.28;;;1.70;;
34836;SDS011;21053;50.848;4.652;2023-05-07T14:18:55;3.97;;;1.80;;
34836;SDS011;21053;50.848;4.652;2023-05-07T14:21:22;4.35;;;1.95;;
34836;SDS011;21053;50.848;4.652;2023-05-07T14:23:48;6.40;;;1.95;;
34836;SDS011;21053;50.848;4.652;2023-05-07T14:26:18;4.55;;;2.05;;
34836;SDS011;21053;50.848;4.652;2023-05-07T14:31:14;5.68;;;2.42;;
34836;SDS011;21053;50.848;4.652;2023-05-07T14:33:39;4.45;;;1.98;;
34836;SDS011;21053;50.848;4.652;2023-05-07T14:36:06;3.85;;;2.17;;
34836;SDS011;21053;50.848;4.652;2023-05-07T14:38:33;4.45;;;1.90;;
34836;SDS011;21053;50.848;4.652;2023-05-07T14:41:00;3.78;;;1.98;;
34836;SDS011;21053;50.848;4.652;2023-05-07T14:43:26;7.88;;;2.20;;
34836;SDS011;21053;50.848;4.652;2023-05-07T14:45:52;6.57;;;2.33;;
34836;SDS011;21053;50.848;4.652;2023-05-07T14:48:19;4.47;;;2.40;;
34836;SDS011;21053;50.848;4.652;2023-05-07T14:50:46;3.92;;;1.75;;
34836;SDS011;21053;50.848;4.652;2023-05-07T14:53:14;4.35;;;2.20;;
34836;SDS011;21053;50.848;4.652;2023-05-07T14:55:40;4.55;;;1.88;;
34836;SDS011;21053;50.848;4.652;2023-05-07T14:58:07;6.00;;;2.17;;
34836;SDS011;21053;50.848;4.652;2023-05-07T15:00:35;3.45;;;2.08;;
34836;SDS011;21053;50.848;4.652;2023-05-07T15:03:05;3.03;;;1.88;;
34836;SDS011;21053;50.848;4.652;2023-05-07T15:05:32;3.80;;;1.95;;
34836;SDS011;21053;50.848;4.652;2023-05-07T15:08:00;6.47;;;2.45;;
34836;SDS011;21053;50.848;4.652;2023-05-07T15:10:26;4.35;;;2.33;;
34836;SDS011;21053;50.848;4.652;2023-05-07T15:12:53;7.32;;;2.63;;
34836;SDS011;21053;50.848;4.652;2023-05-07T15:15:19;4.25;;;2.50;;
34836;SDS011;21053;50.848;4.652;2023-05-07T15:17:45;7.18;;;2.42;;
34836;SDS011;21053;50.848;4.652;2023-05-07T15:20:13;7.40;;;2.42;;
34836;SDS011;21053;50.848;4.652;2023-05-07T15:22:40;4.90;;;2.10;;
34836;SDS011;21053;50.848;4.652;2023-05-07T15:25:06;10.95;;;2.80;;
34836;SDS011;21053;50.848;4.652;2023-05-07T15:27:32;4.85;;;2.00;;
34836;SDS011;21053;50.848;4.652;2023-05-07T15:32:29;3.20;;;2.05;;
34836;SDS011;21053;50.848;4.652;2023-05-07T15:35:02;4.38;;;2.20;;
34836;SDS011;21053;50.848;4.652;2023-05-07T15:37:30;3.65;;;1.83;;
34836;SDS011;21053;50.848;4.652;2023-05-07T15:39:57;6.63;;;2.50;;
34836;SDS011;21053;50.848;4.652;2023-05-07T15:42:24;4.35;;;2.55;;
34836;SDS011;21053;50.848;4.652;2023-05-07T15:44:50;4.45;;;2.47;;
34836;SDS011;21053;50.848;4.652;2023-05-07T15:47:17;5.60;;;2.60;;
34836;SDS011;21053;50.848;4.652;2023-05-07T15:49:44;3.53;;;2.47;;
34836;SDS011;21053;50.848;4.652;2023-05-07T15:52:11;5.65;;;2.80;;
34836;SDS011;21053;50.848;4.652;2023-05-07T15:54:38;5.30;;;2.70;;
34836;SDS011;21053;50.848;4.652;2023-05-07T15:59:35;6.78;;;2.75;;
34836;SDS011;21053;50.848;4.652;2023-05-07T16:02:01;6.30;;;2.83;;
34836;SDS011;21053;50.848;4.652;2023-05-07T16:04:28;5.85;;;2.85;;